Time;durP1;ratioP1;P1;durP2;ratioP2;P2;SDS_P1;SDS_P2;PMS_P1;PMS_P2;Temp;Humidity;BMP_temperature;BMP_pressure;BME280_temperature;BME280_humidity;BME280_pressure;Samples;Min_cycle;Max_cycle;Signal;HPM_P1;HPM_P2
2022/10/05 00:01:51;;;;;;;21.67;12.77;;;;;;;;;;5030405;28;20026;-62
2022/10/05 00:04:17;;;;;;;22.40;12.65;;;;;;;;;;5030076;28;20484;-62
2022/10/05 00:07:03;;;;;;;23.98;13.85;;;;;;;;;;5031475;28;20079;-59
2022/10/05 00:09:30;;;;;;;26.10;13.95;;;;;;;;;;5017797;28;20041;-63
2022/10/05 00:11:56;;;;;;;22.08;11.98;;;;;;;;;;5031400;28;20029;-62
2022/10/05 00:14:31;;;;;;;26.98;13.43;;;;;;;;;;5031223;28;20516;-61
2022/10/05 00:16:57;;;;;;;21.65;12.90;;;;;;;;;;5032270;28;20053;-61
2022/10/05 00:19:36;;;;;;;25.65;13.50;;;;;;;;;;5034949;28;20029;-61
2022/10/05 00:22:15;;;;;;;21.60;11.88;;;;;;;;;;5035094;28;20071;-62
2022/10/05 00:24:41;;;;;;;22.58;12.50;;;;;;;;;;5033773;28;20025;-62
2022/10/05 00:27:21;;;;;;;22.73;13.15;;;;;;;;;;5034936;28;20481;-62
2022/10/05 00:29:48;;;;;;;21.98;12.25;;;;;;;;;;5035182;28;20389;-62
2022/10/05 00:32:14;;;;;;;21.80;12.32;;;;;;;;;;5035192;28;20025;-62
2022/10/05 00:34:41;;;;;;;22.17;13.55;;;;;;;;;;5034827;28;20493;-60
2022/10/05 00:37:07;;;;;;;24.20;13.48;;;;;;;;;;5034739;28;20048;-62
2022/10/05 00:39:34;;;;;;;19.45;11.88;;;;;;;;;;5033722;28;20026;-61
2022/10/05 00:42:19;;;;;;;20.52;12.25;;;;;;;;;;5033209;28;20122;-62
2022/10/05 00:44:45;;;;;;;19.65;12.05;;;;;;;;;;5032884;28;20428;-61
2022/10/05 00:47:29;;;;;;;20.15;12.20;;;;;;;;;;5033131;28;20028;-62
2022/10/05 00:50:06;;;;;;;22.80;12.40;;;;;;;;;;5034308;28;20025;-60
2022/10/05 00:52:48;;;;;;;21.67;12.75;;;;;;;;;;5033013;28;20028;-60
2022/10/05 00:55:15;;;;;;;26.23;13.38;;;;;;;;;;5032872;28;20032;-61
2022/10/05 00:57:59;;;;;;;21.58;11.88;;;;;;;;;;5033132;28;20025;-61
2022/10/05 01:00:26;;;;;;;22.55;13.07;;;;;;;;;;5034410;28;20369;-61
2022/10/05 01:03:25;;;;;;;25.08;13.70;;;;;;;;;;5034170;28;20029;-62
2022/10/05 01:05:53;;;;;;;22.48;12.82;;;;;;;;;;4990206;28;20044;-62
2022/10/05 01:08:25;;;;;;;20.23;12.32;;;;;;;;;;5032672;28;20040;-61
2022/10/05 01:10:58;;;;;;;22.35;13.13;;;;;;;;;;5032810;28;20041;-64
2022/10/05 01:13:32;;;;;;;20.10;12.52;;;;;;;;;;5032422;28;20025;-62
2022/10/05 01:16:17;;;;;;;20.55;12.05;;;;;;;;;;5033889;28;20025;-60
2022/10/05 01:18:51;;;;;;;21.35;12.63;;;;;;;;;;5033748;28;20021;-61
2022/10/05 01:21:18;;;;;;;24.02;12.85;;;;;;;;;;5032343;28;20026;-61
2022/10/05 01:24:00;;;;;;;21.03;12.30;;;;;;;;;;5032237;28;20061;-61
2022/10/05 01:26:36;;;;;;;19.88;12.27;;;;;;;;;;5033383;28;20342;-60
2022/10/05 01:29:10;;;;;;;21.92;12.40;;;;;;;;;;5033618;28;20410;-61
2022/10/05 01:31:42;;;;;;;22.52;11.75;;;;;;;;;;5033583;28;20110;-60
2022/10/05 01:34:23;;;;;;;22.13;12.25;;;;;;;;;;5033371;28;20168;-61
2022/10/05 01:36:57;;;;;;;23.60;12.35;;;;;;;;;;5033509;28;20045;-63
2022/10/05 01:39:26;;;;;;;20.55;12.38;;;;;;;;;;5033735;28;20369;-61
2022/10/05 01:41:52;;;;;;;;;;;;;;;;;;5033602;28;20270;-62
2022/10/05 01:44:21;;;;;;;22.42;13.95;;;;;;;;;;5033210;28;20000;-62
2022/10/05 01:47:06;;;;;;;20.65;12.38;;;;;;;;;;5033040;28;20028;-60
2022/10/05 01:49:37;;;;;;;23.20;13.20;;;;;;;;;;5033058;28;20484;-60
2022/10/05 01:52:21;;;;;;;21.23;12.90;;;;;;;;;;5032908;28;20045;-63
2022/10/05 01:54:50;;;;;;;23.55;11.90;;;;;;;;;;5032948;28;20028;-61
2022/10/05 01:57:16;;;;;;;;;;;;;;;;;;5033526;28;20029;-59
2022/10/05 01:59:54;;;;;;;18.27;12.32;;;;;;;;;;5033009;28;19909;-62
2022/10/05 02:02:22;;;;;;;21.55;13.25;;;;;;;;;;5033004;28;20112;-61
2022/10/05 02:04:58;;;;;;;22.58;11.77;;;;;;;;;;5031445;28;20025;-62
2022/10/05 02:07:26;;;;;;;20.83;11.85;;;;;;;;;;5032585;28;20025;-59
2022/10/05 02:09:52;;;;;;;;;;;;;;;;;;5033136;28;20030;-61
2022/10/05 02:12:20;;;;;;;27.15;13.50;;;;;;;;;;5032759;28;19905;-62
2022/10/05 02:14:50;;;;;;;24.23;13.23;;;;;;;;;;5032495;28;20389;-62
2022/10/05 02:17:18;;;;;;;20.23;12.00;;;;;;;;;;5031254;28;20028;-63
2022/10/05 02:19:48;;;;;;;19.45;11.20;;;;;;;;;;5031185;28;20033;-59
2022/10/05 02:22:25;;;;;;;21.63;11.93;;;;;;;;;;5031219;28;20052;-62
2022/10/05 02:24:55;;;;;;;21.83;13.25;;;;;;;;;;5032437;28;20021;-63
2022/10/05 02:27:24;;;;;;;22.05;12.50;;;;;;;;;;5032292;28;20032;-62
2022/10/05 02:29:50;;;;;;;19.20;12.00;;;;;;;;;;5031231;28;20026;-61
2022/10/05 02:32:22;;;;;;;20.40;12.50;;;;;;;;;;5032485;28;20029;-61
2022/10/05 02:34:48;;;;;;;21.80;13.07;;;;;;;;;;5032527;28;20025;-61
2022/10/05 02:37:33;;;;;;;22.17;13.30;;;;;;;;;;5032536;28;20052;-60
2022/10/05 02:40:03;;;;;;;19.80;12.07;;;;;;;;;;5031045;28;20501;-58
2022/10/05 02:42:48;;;;;;;23.23;13.05;;;;;;;;;;5032576;28;20519;-62
2022/10/05 02:45:21;;;;;;;20.50;13.27;;;;;;;;;;5032078;28;20026;-61
2022/10/05 02:47:57;;;;;;;19.42;12.73;;;;;;;;;;5032031;28;20500;-60
2022/10/05 02:50:37;;;;;;;19.15;11.93;;;;;;;;;;5032167;28;20496;-62
2022/10/05 02:53:06;;;;;;;19.63;11.75;;;;;;;;;;5030634;28;20032;-61
2022/10/05 02:55:32;;;;;;;24.70;13.88;;;;;;;;;;5030778;28;20029;-62
2022/10/05 02:58:07;;;;;;;23.58;12.30;;;;;;;;;;5030798;28;20075;-61
2022/10/05 03:00:36;;;;;;;21.58;13.38;;;;;;;;;;5030853;28;20032;-59
2022/10/05 03:03:21;;;;;;;22.20;13.60;;;;;;;;;;5030464;28;20040;-60
2022/10/05 03:05:50;;;;;;;23.25;13.55;;;;;;;;;;5031972;28;20034;-62
2022/10/05 03:08:19;;;;;;;26.80;15.63;;;;;;;;;;5031992;28;20026;-61
2022/10/05 03:10:45;;;;;;;;;;;;;;;;;;5032727;28;20022;-61
2022/10/05 03:13:19;;;;;;;22.08;12.73;;;;;;;;;;5032016;28;19905;-62
2022/10/05 03:15:57;;;;;;;24.15;14.05;;;;;;;;;;5030916;28;20025;-62
2022/10/05 03:18:32;;;;;;;21.98;13.75;;;;;;;;;;5031750;28;20105;-61
2022/10/05 03:21:06;;;;;;;21.77;12.90;;;;;;;;;;5031700;28;20461;-61
2022/10/05 03:23:50;;;;;;;20.75;13.27;;;;;;;;;;5030382;28;20030;-62
2022/10/05 03:26:19;;;;;;;23.67;13.27;;;;;;;;;;5031611;28;20060;-59
2022/10/05 03:28:45;;;;;;;;;;;;;;;;;;5030806;28;20033;-62
2022/10/05 03:31:27;;;;;;;22.15;13.55;;;;;;;;;;5031930;28;19960;-63
2022/10/05 03:34:00;;;;;;;21.27;12.63;;;;;;;;;;5031385;28;20021;-61
2022/10/05 03:36:43;;;;;;;24.20;13.95;;;;;;;;;;5030330;28;20038;-58
2022/10/05 03:39:14;;;;;;;21.40;12.70;;;;;;;;;;5031741;28;20057;-61
2022/10/05 03:41:50;;;;;;;24.75;14.23;;;;;;;;;;5031694;28;20489;-61
2022/10/05 03:44:34;;;;;;;23.63;14.38;;;;;;;;;;5031480;28;20026;-61
2022/10/05 03:47:08;;;;;;;26.35;13.48;;;;;;;;;;5030005;28;20029;-62
2022/10/05 03:49:36;;;;;;;21.35;13.93;;;;;;;;;;5031578;28;20099;-60
2022/10/05 03:52:22;;;;;;;22.73;13.52;;;;;;;;;;5032909;28;20720;-61
2022/10/05 03:54:48;;;;;;;22.95;13.93;;;;;;;;;;5035043;28;20029;-62
2022/10/05 03:57:17;;;;;;;22.73;14.80;;;;;;;;;;5033914;28;20130;-62
2022/10/05 03:59:54;;;;;;;24.27;14.77;;;;;;;;;;5035532;28;20030;-62
2022/10/05 04:02:29;;;;;;;24.90;14.45;;;;;;;;;;5035450;28;20037;-63
2022/10/05 04:04:58;;;;;;;22.45;14.38;;;;;;;;;;5033518;28;20031;-59
2022/10/05 04:07:28;;;;;;;23.00;14.18;;;;;;;;;;5034658;28;20516;-60
2022/10/05 04:09:55;;;;;;;26.50;14.63;;;;;;;;;;5034933;28;20067;-59
2022/10/05 04:12:21;;;;;;;22.83;12.98;;;;;;;;;;5031158;28;20022;-60
2022/10/05 04:14:49;;;;;;;22.50;14.77;;;;;;;;;;5014949;28;20033;-63
2022/10/05 04:17:25;;;;;;;23.73;14.40;;;;;;;;;;5014902;28;20026;-60
2022/10/05 04:20:02;;;;;;;23.30;13.57;;;;;;;;;;5015129;28;20025;-63
2022/10/05 04:22:35;;;;;;;29.20;15.53;;;;;;;;;;5015077;28;20053;-62
2022/10/05 04:25:12;;;;;;;23.73;15.00;;;;;;;;;;5014853;28;20030;-61
2022/10/05 04:27:41;;;;;;;23.15;13.85;;;;;;;;;;5013632;28;20437;-62
2022/10/05 04:30:15;;;;;;;21.80;14.35;;;;;;;;;;5013892;28;20129;-59
2022/10/05 04:32:42;;;;;;;22.95;14.18;;;;;;;;;;5014061;28;20026;-61
2022/10/05 04:35:08;;;;;;;22.27;13.73;;;;;;;;;;5013187;28;20061;-63
2022/10/05 04:37:49;;;;;;;22.70;14.27;;;;;;;;;;5013202;28;20501;-63
2022/10/05 04:40:24;;;;;;;23.40;14.48;;;;;;;;;;5025884;28;20025;-61
2022/10/05 04:42:58;;;;;;;24.42;13.38;;;;;;;;;;5033984;28;20029;-61
2022/10/05 04:45:43;;;;;;;23.88;13.38;;;;;;;;;;5012959;28;20032;-62
2022/10/05 04:48:17;;;;;;;22.17;13.88;;;;;;;;;;5022187;28;20396;-63
2022/10/05 04:50:48;;;;;;;22.08;14.27;;;;;;;;;;5034001;28;20041;-62
2022/10/05 04:53:24;;;;;;;23.92;14.75;;;;;;;;;;5033654;28;20070;-63
2022/10/05 04:55:50;;;;;;;24.77;14.57;;;;;;;;;;5033892;28;20496;-62
2022/10/05 04:58:26;;;;;;;23.52;14.10;;;;;;;;;;5032696;28;20053;-62
2022/10/05 05:01:11;;;;;;;22.40;12.60;;;;;;;;;;5032588;28;20095;-63
2022/10/05 05:03:48;;;;;;;22.40;13.73;;;;;;;;;;5033228;28;20488;-61
2022/10/05 05:06:29;;;;;;;23.60;13.88;;;;;;;;;;5033713;28;20033;-62
2022/10/05 05:09:09;;;;;;;22.17;14.18;;;;;;;;;;5033850;28;20061;-61
2022/10/05 05:11:35;;;;;;;21.70;14.43;;;;;;;;;;5033338;28;20021;-63
2022/10/05 05:14:01;;;;;;;20.65;13.20;;;;;;;;;;5021919;28;20496;-62
2022/10/05 05:16:37;;;;;;;20.27;12.73;;;;;;;;;;5013674;28;20458;-59
2022/10/05 05:19:03;;;;;;;21.00;14.15;;;;;;;;;;5013834;28;20029;-62
2022/10/05 05:21:29;;;;;;;22.50;13.38;;;;;;;;;;5013576;28;20022;-62
2022/10/05 05:24:13;;;;;;;23.98;13.85;;;;;;;;;;5013383;28;20026;-63
2022/10/05 05:26:39;;;;;;;23.42;14.32;;;;;;;;;;5013531;28;20022;-63
2022/10/05 05:29:13;;;;;;;23.48;13.93;;;;;;;;;;5013582;28;20049;-61
2022/10/05 05:31:48;;;;;;;21.63;13.07;;;;;;;;;;5012116;28;20037;-60
2022/10/05 05:34:33;;;;;;;23.05;13.40;;;;;;;;;;5011958;28;20026;-61
2022/10/05 05:36:59;;;;;;;23.30;14.07;;;;;;;;;;5059065;22;20056;-63
2022/10/05 05:39:33;;;;;;;22.35;13.85;;;;;;;;;;5073148;28;20035;-63
2022/10/05 05:42:01;;;;;;;23.45;14.40;;;;;;;;;;5074634;28;20370;-64
2022/10/05 05:44:35;;;;;;;21.60;13.65;;;;;;;;;;5072615;28;20515;-63
2022/10/05 05:47:02;;;;;;;23.00;13.32;;;;;;;;;;5073689;28;20096;-64
2022/10/05 05:49:47;;;;;;;21.35;13.55;;;;;;;;;;5075493;28;20027;-63
2022/10/05 05:52:19;;;;;;;22.23;12.75;;;;;;;;;;5075044;28;20032;-62
2022/10/05 05:54:58;;;;;;;20.35;12.70;;;;;;;;;;5074726;28;20024;-63
2022/10/05 05:57:30;;;;;;;20.75;13.40;;;;;;;;;;5073242;28;20025;-63
2022/10/05 06:00:04;;;;;;;24.08;13.05;;;;;;;;;;5074042;28;20112;-64
2022/10/05 06:02:33;;;;;;;21.50;12.88;;;;;;;;;;5074032;28;20020;-64
2022/10/05 06:05:09;;;;;;;21.88;13.65;;;;;;;;;;5073208;28;20025;-63
2022/10/05 06:07:36;;;;;;;27.63;15.05;;;;;;;;;;5073449;28;20039;-64
2022/10/05 06:10:02;;;;;;;22.90;13.80;;;;;;;;;;5073486;28;20024;-62
2022/10/05 06:12:36;;;;;;;23.95;13.43;;;;;;;;;;5073218;28;20115;-63
2022/10/05 06:15:21;;;;;;;27.25;15.32;;;;;;;;;;5072572;28;20032;-62
2022/10/05 06:17:51;;;;;;;24.25;14.30;;;;;;;;;;5071994;28;20027;-63
2022/10/05 06:20:26;;;;;;;22.02;13.82;;;;;;;;;;5072083;28;20024;-62
2022/10/05 06:22:55;;;;;;;21.15;13.38;;;;;;;;;;5073192;28;20029;-62
2022/10/05 06:25:27;;;;;;;24.20;13.27;;;;;;;;;;5071625;28;20115;-63
2022/10/05 06:28:11;;;;;;;22.08;12.68;;;;;;;;;;5073186;28;20128;-63
2022/10/05 06:30:43;;;;;;;20.70;12.52;;;;;;;;;;5073110;28;20024;-63
2022/10/05 06:33:19;;;;;;;22.65;12.98;;;;;;;;;;5072568;28;20035;-63
2022/10/05 06:36:01;;;;;;;20.30;12.85;;;;;;;;;;5072640;28;20029;-63
2022/10/05 06:38:27;;;;;;;20.02;12.25;;;;;;;;;;5073013;28;20108;-63
2022/10/05 06:40:59;;;;;;;20.33;12.27;;;;;;;;;;5072824;28;20455;-63
2022/10/05 06:43:25;;;;;;;22.98;12.85;;;;;;;;;;5070835;28;20029;-62
2022/10/05 06:46:03;;;;;;;23.27;12.70;;;;;;;;;;5072412;28;20035;-62
2022/10/05 06:48:48;;;;;;;20.70;12.35;;;;;;;;;;5071502;28;20025;-64
2022/10/05 06:51:15;;;;;;;19.95;12.88;;;;;;;;;;5072755;28;20048;-63
2022/10/05 06:53:44;;;;;;;22.65;13.02;;;;;;;;;;5072469;28;20039;-62
2022/10/05 06:56:30;;;;;;;21.95;12.27;;;;;;;;;;5070991;28;20028;-64
2022/10/05 06:58:59;;;;;;;19.88;11.75;;;;;;;;;;5064992;28;20036;-63
2022/10/05 07:01:42;;;;;;;29.17;11.95;;;;;;;;;;5072816;28;20111;-63
2022/10/05 07:04:26;;;;;;;22.02;12.13;;;;;;;;;;5072302;28;20025;-62
2022/10/05 07:06:58;;;;;;;19.35;12.02;;;;;;;;;;5072336;28;20021;-62
2022/10/05 07:09:42;;;;;;;21.65;12.23;;;;;;;;;;5072399;28;20032;-63
2022/10/05 07:12:17;;;;;;;20.05;11.60;;;;;;;;;;5072653;28;20078;-62
2022/10/05 07:14:57;;;;;;;19.75;11.25;;;;;;;;;;5072289;28;20226;-62
2022/10/05 07:17:26;;;;;;;20.13;11.85;;;;;;;;;;5072310;28;20036;-62
2022/10/05 07:20:08;;;;;;;21.75;12.88;;;;;;;;;;5072598;28;20055;-63
2022/10/05 07:22:33;;;;;;;20.27;11.70;;;;;;;;;;5071272;28;20073;-62
2022/10/05 07:25:10;;;;;;;19.33;12.20;;;;;;;;;;5072195;28;20123;-63
2022/10/05 07:27:44;;;;;;;19.58;11.38;;;;;;;;;;5076064;28;20384;-63
2022/10/05 07:30:11;;;;;;;20.92;11.07;;;;;;;;;;5077059;28;20013;-64
2022/10/05 07:32:37;;;;;;;17.92;10.98;;;;;;;;;;5076630;28;20089;-64
2022/10/05 07:37:53;;;;;;;20.02;11.48;;;;;;;;;;5075995;28;20516;-64
2022/10/05 07:38:01;;;;;;;20.08;10.52;;;;;;;;;;5076138;28;20071;-64
2022/10/05 07:40:27;;;;;;;;;;;;;;;;;;5077103;28;20062;-62
2022/10/05 07:42:54;;;;;;;19.02;11.88;;;;;;;;;;5076192;28;19905;-64
2022/10/05 07:45:40;;;;;;;18.77;11.55;;;;;;;;;;5076013;28;20111;-63
2022/10/05 07:48:12;;;;;;;20.33;11.38;;;;;;;;;;5054608;28;20511;-61
2022/10/05 07:50:42;;;;;;;19.85;11.48;;;;;;;;;;5075649;28;20368;-59
2022/10/05 07:53:18;;;;;;;18.15;11.23;;;;;;;;;;5075580;28;20442;-58
2022/10/05 07:55:46;;;;;;;21.45;11.63;;;;;;;;;;5075610;28;20027;-59
2022/10/05 07:58:12;;;;;;;20.23;11.38;;;;;;;;;;5075400;28;20495;-65
2022/10/05 08:00:59;;;;;;;19.90;11.00;;;;;;;;;;5075568;28;20027;-67
2022/10/05 08:03:25;;;;;;;21.27;10.68;;;;;;;;;;5084879;28;20025;-65
2022/10/05 08:05:51;;;;;;;20.50;10.95;;;;;;;;;;5083807;28;20028;-66
2022/10/05 08:08:41;;;;;;;20.40;11.27;;;;;;;;;;5075682;28;20024;-65
2022/10/05 08:11:13;;;;;;;18.88;10.82;;;;;;;;;;5074089;28;20024;-65
2022/10/05 08:13:39;;;;;;;20.35;11.25;;;;;;;;;;5055163;28;20101;-63
2022/10/05 08:16:13;;;;;;;18.60;11.35;;;;;;;;;;5055337;28;20029;-65
2022/10/05 08:18:55;;;;;;;17.42;10.70;;;;;;;;;;5055279;28;20384;-65
2022/10/05 08:21:32;;;;;;;18.38;11.23;;;;;;;;;;5055811;28;20040;-65
2022/10/05 08:24:05;;;;;;;22.37;12.23;;;;;;;;;;5070281;28;20033;-66
2022/10/05 08:26:49;;;;;;;17.52;10.52;;;;;;;;;;5054983;28;20036;-68
2022/10/05 08:29:26;;;;;;;19.08;10.32;;;;;;;;;;5055772;28;20049;-66
2022/10/05 08:31:55;;;;;;;18.98;10.38;;;;;;;;;;5055012;28;20393;-65
2022/10/05 08:34:45;;;;;;;16.60;10.27;;;;;;;;;;5070444;28;20021;-66
2022/10/05 08:37:21;;;;;;;19.95;10.50;;;;;;;;;;5054170;28;20484;-67
2022/10/05 08:40:06;;;;;;;19.48;9.88;;;;;;;;;;5055067;28;20029;-67
2022/10/05 08:42:32;;;;;;;18.55;10.02;;;;;;;;;;5073228;28;20028;-66
2022/10/05 08:44:58;;;;;;;16.27;9.30;;;;;;;;;;5074494;28;20063;-67
2022/10/05 08:47:27;;;;;;;18.55;9.73;;;;;;;;;;5072949;28;20415;-67
2022/10/05 08:50:02;;;;;;;19.30;10.18;;;;;;;;;;5073413;28;20021;-68
2022/10/05 08:53:04;;;;;;;17.10;10.32;;;;;;;;;;5074695;28;20033;-68
2022/10/05 08:55:48;;;;;;;17.92;10.15;;;;;;;;;;4992921;28;20034;-66
2022/10/05 08:58:25;;;;;;;16.23;10.23;;;;;;;;;;5068866;28;20039;-67
2022/10/05 09:01:06;;;;;;;15.73;9.75;;;;;;;;;;5074448;28;20483;-65
2022/10/05 09:03:51;;;;;;;17.25;9.77;;;;;;;;;;5073306;28;20032;-66
2022/10/05 09:06:49;;;;;;;16.52;10.40;;;;;;;;;;5072931;28;20025;-66
2022/10/05 09:09:16;;;;;;;18.02;10.68;;;;;;;;;;5073415;28;20391;-66
2022/10/05 09:11:56;;;;;;;18.95;10.40;;;;;;;;;;5074504;28;20384;-65
2022/10/05 09:14:25;;;;;;;16.45;10.38;;;;;;;;;;5074511;28;20017;-66
2022/10/05 09:17:10;;;;;;;17.30;10.35;;;;;;;;;;5074625;28;20020;-66
2022/10/05 09:19:46;;;;;;;18.52;10.48;;;;;;;;;;5074819;28;20489;-66
2022/10/05 09:22:31;;;;;;;18.00;10.90;;;;;;;;;;5073441;28;20021;-67
2022/10/05 09:25:03;;;;;;;15.98;9.68;;;;;;;;;;5074541;28;20479;-67
2022/10/05 09:27:36;;;;;;;24.55;10.73;;;;;;;;;;5074280;28;20420;-67
2022/10/05 09:30:14;;;;;;;19.05;10.13;;;;;;;;;;5074447;28;20099;-66
2022/10/05 09:32:50;;;;;;;15.70;9.82;;;;;;;;;;5075004;28;20363;-66
2022/10/05 09:35:37;;;;;;;17.27;10.02;;;;;;;;;;5074029;28;20100;-66
2022/10/05 09:38:12;;;;;;;17.15;10.80;;;;;;;;;;5074166;28;20041;-66
2022/10/05 09:40:40;;;;;;;16.58;9.95;;;;;;;;;;5074037;28;21412;-67
2022/10/05 09:43:15;;;;;;;18.13;10.67;;;;;;;;;;5072881;28;20107;-67
2022/10/05 09:45:48;;;;;;;17.40;10.00;;;;;;;;;;5073253;28;20263;-67
2022/10/05 09:48:28;;;;;;;17.52;10.18;;;;;;;;;;5074326;28;20035;-65
2022/10/05 09:51:03;;;;;;;18.73;9.45;;;;;;;;;;5071895;28;20062;-67
2022/10/05 09:53:39;;;;;;;17.90;10.25;;;;;;;;;;5073607;28;20431;-66
2022/10/05 09:56:18;;;;;;;15.50;9.65;;;;;;;;;;5072599;28;20029;-66
2022/10/05 09:58:44;;;;;;;;;;;;;;;;;;5073301;28;20020;-68
2022/10/05 10:01:23;;;;;;;19.63;10.90;;;;;;;;;;5073593;28;20279;-66
2022/10/05 10:03:52;;;;;;;16.05;9.85;;;;;;;;;;5073377;28;20020;-65
2022/10/05 10:06:29;;;;;;;16.33;10.27;;;;;;;;;;5073629;28;20025;-66
2022/10/05 10:09:04;;;;;;;17.35;10.60;;;;;;;;;;5071942;28;20029;-66
2022/10/05 10:11:29;;;;;;;17.90;9.95;;;;;;;;;;5073535;28;20044;-66
2022/10/05 10:14:02;;;;;;;16.90;10.20;;;;;;;;;;5082871;28;20020;-66
2022/10/05 10:16:42;;;;;;;16.42;10.65;;;;;;;;;;5083849;28;20063;-66
2022/10/05 10:19:18;;;;;;;15.65;9.90;;;;;;;;;;5082820;28;20028;-66
2022/10/05 10:21:47;;;;;;;17.17;10.55;;;;;;;;;;5079504;28;20024;-67
2022/10/05 10:24:42;;;;;;;16.70;10.27;;;;;;;;;;5073936;28;20025;-66
2022/10/05 10:27:15;;;;;;;15.50;9.55;;;;;;;;;;5073154;28;20492;-67
2022/10/05 10:29:52;;;;;;;15.25;9.65;;;;;;;;;;5072039;28;20070;-66
2022/10/05 10:32:18;;;;;;;15.82;9.38;;;;;;;;;;5071665;28;20029;-67
2022/10/05 10:34:44;;;;;;;15.63;9.32;;;;;;;;;;5072604;28;20078;-68
2022/10/05 10:37:10;;;;;;;19.13;9.90;;;;;;;;;;5073539;28;20361;-67
2022/10/05 10:39:55;;;;;;;16.42;9.80;;;;;;;;;;5073008;28;20032;-67
2022/10/05 10:42:27;;;;;;;16.63;10.45;;;;;;;;;;5072941;28;20032;-66
2022/10/05 10:44:59;;;;;;;17.75;10.25;;;;;;;;;;5070166;28;20036;-67
2022/10/05 10:47:39;;;;;;;16.00;10.88;;;;;;;;;;5072542;28;20021;-65
2022/10/05 10:50:24;;;;;;;19.77;10.43;;;;;;;;;;5073570;28;20031;-64
2022/10/05 10:53:09;;;;;;;17.73;10.13;;;;;;;;;;5073745;28;20028;-66
2022/10/05 10:55:38;;;;;;;15.93;10.48;;;;;;;;;;5074231;28;20039;-66
2022/10/05 10:58:07;;;;;;;16.60;10.40;;;;;;;;;;5074217;28;20067;-66
2022/10/05 11:00:46;;;;;;;17.73;10.73;;;;;;;;;;5072677;28;20103;-64
2022/10/05 11:03:31;;;;;;;15.73;10.30;;;;;;;;;;5070598;28;20103;-65
2022/10/05 11:06:00;;;;;;;17.27;11.05;;;;;;;;;;5072858;28;20573;-65
2022/10/05 11:08:26;;;;;;;19.40;11.02;;;;;;;;;;5072447;28;20171;-65
2022/10/05 11:10:58;;;;;;;17.52;10.43;;;;;;;;;;5070254;28;20032;-68
2022/10/05 11:13:42;;;;;;;19.08;11.18;;;;;;;;;;5071882;28;20017;-58
2022/10/05 11:16:17;;;;;;;16.85;10.40;;;;;;;;;;5071980;28;20069;-67
2022/10/05 11:19:02;;;;;;;17.38;10.35;;;;;;;;;;5071036;28;20029;-68
2022/10/05 11:21:35;;;;;;;17.77;10.32;;;;;;;;;;5072509;28;20033;-67
2022/10/05 11:24:20;;;;;;;18.42;10.40;;;;;;;;;;5072252;28;20020;-68
2022/10/05 11:26:46;;;;;;;18.02;10.25;;;;;;;;;;5070588;28;20040;-67
2022/10/05 11:29:24;;;;;;;16.98;9.68;;;;;;;;;;5072566;28;20020;-67
2022/10/05 11:32:02;;;;;;;16.08;9.82;;;;;;;;;;5071758;28;20096;-66
2022/10/05 11:34:37;;;;;;;17.15;9.30;;;;;;;;;;5072204;28;20013;-69
2022/10/05 11:37:19;;;;;;;16.55;9.32;;;;;;;;;;5073529;28;20033;-67
2022/10/05 11:39:51;;;;;;;16.63;10.45;;;;;;;;;;5072646;28;20020;-64
2022/10/05 11:42:17;;;;;;;17.23;10.20;;;;;;;;;;5070439;28;20025;-67
2022/10/05 11:45:02;;;;;;;16.60;10.15;;;;;;;;;;5072281;28;20028;-66
2022/10/05 11:47:31;;;;;;;16.00;9.73;;;;;;;;;;5073050;28;20028;-67
2022/10/05 11:50:05;;;;;;;15.73;9.98;;;;;;;;;;5072224;28;20089;-67
2022/10/05 11:52:40;;;;;;;16.52;9.82;;;;;;;;;;5072772;28;20411;-67
2022/10/05 11:55:15;;;;;;;15.93;9.90;;;;;;;;;;5071438;28;20479;-67
2022/10/05 11:57:58;;;;;;;16.63;9.82;;;;;;;;;;5070044;28;20056;-66
2022/10/05 12:00:27;;;;;;;15.38;9.63;;;;;;;;;;5072263;28;20028;-67
2022/10/05 12:03:10;;;;;;;16.67;10.02;;;;;;;;;;5070703;28;20174;-68
2022/10/05 12:05:39;;;;;;;15.52;10.20;;;;;;;;;;5071431;28;20028;-67
2022/10/05 12:08:28;;;;;;;15.85;10.45;;;;;;;;;;5071201;28;20440;-66
2022/10/05 12:11:20;;;;;;;17.92;11.05;;;;;;;;;;5071294;28;20400;-67
2022/10/05 12:13:50;;;;;;;15.90;10.43;;;;;;;;;;5051193;28;20041;-66
2022/10/05 12:16:42;;;;;;;16.33;10.75;;;;;;;;;;5054852;28;20021;-66
2022/10/05 12:19:13;;;;;;;18.50;11.88;;;;;;;;;;5061879;28;20038;-65
2022/10/05 12:21:41;;;;;;;16.40;10.93;;;;;;;;;;5075778;28;20032;-64
2022/10/05 12:24:17;;;;;;;17.80;11.50;;;;;;;;;;5075624;28;20024;-66
2022/10/05 12:26:48;;;;;;;15.95;11.43;;;;;;;;;;5066374;28;20025;-67
2022/10/05 12:29:20;;;;;;;17.05;11.70;;;;;;;;;;5056818;28;20021;-63
2022/10/05 12:31:53;;;;;;;16.77;11.65;;;;;;;;;;5065574;28;20377;-61
2022/10/05 12:34:42;;;;;;;16.52;11.65;;;;;;;;;;5074422;28;20019;-61
2022/10/05 12:37:27;;;;;;;16.02;12.15;;;;;;;;;;5063648;28;20214;-61
2022/10/05 12:40:01;;;;;;;15.90;12.00;;;;;;;;;;5074672;28;20031;-62
2022/10/05 12:42:27;;;;;;;17.25;11.57;;;;;;;;;;5072282;28;20123;-64
2022/10/05 12:45:16;;;;;;;18.20;12.43;;;;;;;;;;5074476;28;20088;-62
2022/10/05 12:47:54;;;;;;;16.40;11.32;;;;;;;;;;5055205;28;20029;-63
2022/10/05 12:50:41;;;;;;;16.88;11.60;;;;;;;;;;5054529;28;20373;-62
2022/10/05 12:53:07;;;;;;;17.38;12.07;;;;;;;;;;5069681;28;20048;-62
2022/10/05 12:55:42;;;;;;;18.67;11.40;;;;;;;;;;5073459;28;20017;-61
2022/10/05 12:58:27;;;;;;;17.45;11.35;;;;;;;;;;5074307;28;20119;-61
2022/10/05 13:01:08;;;;;;;16.20;11.48;;;;;;;;;;5074842;28;20540;-61
2022/10/05 13:03:37;;;;;;;17.30;13.05;;;;;;;;;;5074317;28;20024;-60
2022/10/05 13:06:19;;;;;;;14.77;11.00;;;;;;;;;;5073316;28;20503;-60
2022/10/05 13:09:00;;;;;;;16.75;11.88;;;;;;;;;;5070649;28;20028;-61
2022/10/05 13:11:39;;;;;;;17.33;11.27;;;;;;;;;;5067427;28;20032;-62
2022/10/05 13:14:06;;;;;;;15.73;11.25;;;;;;;;;;5052383;28;20028;-61
2022/10/05 13:16:42;;;;;;;15.90;11.45;;;;;;;;;;5052876;28;20021;-62
2022/10/05 13:19:08;;;;;;;17.95;11.32;;;;;;;;;;5052416;28;20039;-62
2022/10/05 13:21:46;;;;;;;16.42;11.90;;;;;;;;;;5052513;28;20374;-61
2022/10/05 13:24:21;;;;;;;17.15;11.88;;;;;;;;;;5060768;28;20078;-61
2022/10/05 13:26:51;;;;;;;15.40;11.18;;;;;;;;;;5073595;28;20036;-61
2022/10/05 13:29:21;;;;;;;16.15;11.52;;;;;;;;;;5072344;28;20033;-62
2022/10/05 13:31:59;;;;;;;17.80;11.40;;;;;;;;;;5073921;28;20044;-62
2022/10/05 13:34:34;;;;;;;17.38;11.32;;;;;;;;;;5073392;28;20040;-62
2022/10/05 13:37:05;;;;;;;15.88;12.15;;;;;;;;;;5073458;28;20455;-61
2022/10/05 13:39:54;;;;;;;16.67;11.57;;;;;;;;;;5073806;28;20023;-62
2022/10/05 13:42:25;;;;;;;16.60;12.18;;;;;;;;;;5073171;28;20069;-62
2022/10/05 13:45:10;;;;;;;17.42;12.18;;;;;;;;;;5072483;28;20025;-61
2022/10/05 13:47:45;;;;;;;17.33;12.40;;;;;;;;;;5071399;28;20024;-62
2022/10/05 13:50:20;;;;;;;17.15;13.10;;;;;;;;;;5070733;28;20087;-62
2022/10/05 13:53:10;;;;;;;16.38;12.55;;;;;;;;;;5070329;28;20082;-61
2022/10/05 13:55:39;;;;;;;17.08;13.35;;;;;;;;;;5059350;28;20492;-62
2022/10/05 13:58:05;;;;;;;17.70;13.05;;;;;;;;;;5072860;28;20574;-62
2022/10/05 14:00:33;;;;;;;20.73;13.15;;;;;;;;;;5072688;28;20032;-61
2022/10/05 14:03:00;;;;;;;17.42;13.20;;;;;;;;;;5071208;28;20475;-61
2022/10/05 14:05:27;;;;;;;16.55;12.70;;;;;;;;;;5070445;28;20357;-62
2022/10/05 14:07:57;;;;;;;16.77;12.77;;;;;;;;;;4718192;28;10000186;-62
2022/10/05 14:10:30;;;;;;;16.20;12.63;;;;;;;;;;5061046;28;20024;-62
2022/10/05 14:12:56;;;;;;;17.65;12.13;;;;;;;;;;5069896;28;20052;-61
2022/10/05 14:15:27;;;;;;;15.80;11.88;;;;;;;;;;5068991;28;20036;-64
2022/10/05 14:17:54;;;;;;;18.63;12.73;;;;;;;;;;5048787;28;20033;-59
2022/10/05 14:20:29;;;;;;;15.82;12.18;;;;;;;;;;5050252;28;20114;-57
2022/10/05 14:22:57;;;;;;;16.27;12.15;;;;;;;;;;5048818;28;20036;-58
2022/10/05 14:25:23;;;;;;;15.90;12.43;;;;;;;;;;5060925;28;20028;-59
2022/10/05 14:27:49;;;;;;;16.42;12.40;;;;;;;;;;5069445;28;20106;-60
2022/10/05 14:30:15;;;;;;;16.17;12.40;;;;;;;;;;5068971;28;20495;-60
2022/10/05 14:32:50;;;;;;;16.33;12.32;;;;;;;;;;5070334;28;20073;-58
2022/10/05 14:35:20;;;;;;;16.27;12.30;;;;;;;;;;5069332;28;20349;-60
2022/10/05 14:37:46;;;;;;;17.85;12.60;;;;;;;;;;5071843;28;20553;-60
2022/10/05 14:40:30;;;;;;;18.17;12.75;;;;;;;;;;5070194;28;20036;-61
2022/10/05 14:42:56;;;;;;;17.13;12.40;;;;;;;;;;4718535;28;9999877;-59
2022/10/05 14:45:24;;;;;;;16.48;12.40;;;;;;;;;;5049151;28;20068;-60
2022/10/05 14:48:02;;;;;;;19.95;12.30;;;;;;;;;;5059433;28;20384;-59
2022/10/05 14:50:29;;;;;;;15.55;12.20;;;;;;;;;;5068400;28;20025;-62
2022/10/05 14:53:10;;;;;;;16.13;12.65;;;;;;;;;;5068180;28;20016;-61
2022/10/05 14:55:36;;;;;;;16.55;12.45;;;;;;;;;;5068325;28;20040;-60
2022/10/05 14:58:07;;;;;;;16.48;12.10;;;;;;;;;;5066881;28;20082;-61
2022/10/05 15:00:40;;;;;;;16.98;12.10;;;;;;;;;;5069028;28;20473;-61
2022/10/05 15:03:26;;;;;;;15.82;12.50;;;;;;;;;;5066955;28;20032;-61